sensor_id;sensor_type;location;lat;lon;timestamp;P1;durP1;ratioP1;P2;durP2;ratioP2
20441;SDS011;10380;52.102;20.614;2023-12-20T00:02:23;17.50;;;11.40;;
20441;SDS011;10380;52.102;20.614;2023-12-20T00:04:51;16.03;;;11.53;;
20441;SDS011;10380;52.102;20.614;2023-12-20T00:07:19;15.67;;;10.93;;
20441;SDS011;10380;52.102;20.614;2023-12-20T00:09:47;16.20;;;11.20;;
20441;SDS011;10380;52.102;20.614;2023-12-20T00:12:14;15.57;;;10.90;;
20441;SDS011;10380;52.102;20.614;2023-12-20T00:14:41;17.83;;;10.80;;
20441;SDS011;10380;52.102;20.614;2023-12-20T00:17:07;16.20;;;11.27;;
20441;SDS011;10380;52.102;20.614;2023-12-20T00:19:36;16.30;;;10.27;;
20441;SDS011;10380;52.102;20.614;2023-12-20T00:22:03;15.07;;;11.27;;
20441;SDS011;10380;52.102;20.614;2023-12-20T00:24:30;15.83;;;11.50;;
20441;SDS011;10380;52.102;20.614;2023-12-20T00:26:57;12.77;;;10.37;;
20441;SDS011;10380;52.102;20.614;2023-12-20T00:29:24;14.13;;;10.93;;
20441;SDS011;10380;52.102;20.614;2023-12-20T00:31:51;15.10;;;10.50;;
20441;SDS011;10380;52.102;20.614;2023-12-20T00:34:19;18.00;;;11.07;;
20441;SDS011;10380;52.102;20.614;2023-12-20T00:36:46;15.43;;;11.83;;
20441;SDS011;10380;52.102;20.614;2023-12-20T00:39:14;16.00;;;12.03;;
20441;SDS011;10380;52.102;20.614;2023-12-20T00:41:40;13.63;;;10.27;;
20441;SDS011;10380;52.102;20.614;2023-12-20T00:44:07;13.73;;;9.60;;
20441;SDS011;10380;52.102;20.614;2023-12-20T00:46:34;13.70;;;11.30;;
20441;SDS011;10380;52.102;20.614;2023-12-20T00:49:01;14.27;;;10.30;;
20441;SDS011;10380;52.102;20.614;2023-12-20T00:51:28;17.23;;;10.50;;
20441;SDS011;10380;52.102;20.614;2023-12-20T00:53:55;17.27;;;11.13;;
20441;SDS011;10380;52.102;20.614;2023-12-20T00:56:22;15.47;;;10.57;;
20441;SDS011;10380;52.102;20.614;2023-12-20T00:58:49;13.50;;;10.57;;
20441;SDS011;10380;52.102;20.614;2023-12-20T01:01:15;13.50;;;9.40;;
20441;SDS011;10380;52.102;20.614;2023-12-20T01:03:42;15.40;;;10.60;;
20441;SDS011;10380;52.102;20.614;2023-12-20T01:06:10;14.37;;;10.93;;
20441;SDS011;10380;52.102;20.614;2023-12-20T01:08:37;15.90;;;10.60;;
20441;SDS011;10380;52.102;20.614;2023-12-20T01:11:04;13.10;;;9.70;;
20441;SDS011;10380;52.102;20.614;2023-12-20T01:13:32;13.87;;;10.50;;
20441;SDS011;10380;52.102;20.614;2023-12-20T01:15:59;14.00;;;9.70;;
20441;SDS011;10380;52.102;20.614;2023-12-20T01:18:26;13.83;;;10.33;;
20441;SDS011;10380;52.102;20.614;2023-12-20T01:20:53;15.80;;;11.27;;
20441;SDS011;10380;52.102;20.614;2023-12-20T01:23:20;18.77;;;10.43;;
20441;SDS011;10380;52.102;20.614;2023-12-20T01:31:20;12.47;;;9.10;;
20441;SDS011;10380;52.102;20.614;2023-12-20T01:33:47;13.10;;;9.93;;
20441;SDS011;10380;52.102;20.614;2023-12-20T01:36:14;14.63;;;10.47;;
20441;SDS011;10380;52.102;20.614;2023-12-20T01:38:41;13.73;;;10.20;;
20441;SDS011;10380;52.102;20.614;2023-12-20T01:41:09;16.10;;;9.87;;
20441;SDS011;10380;52.102;20.614;2023-12-20T01:43:36;13.43;;;9.77;;
20441;SDS011;10380;52.102;20.614;2023-12-20T01:46:16;12.93;;;9.77;;
20441;SDS011;10380;52.102;20.614;2023-12-20T01:48:44;11.03;;;9.17;;
20441;SDS011;10380;52.102;20.614;2023-12-20T01:51:11;13.03;;;9.53;;
20441;SDS011;10380;52.102;20.614;2023-12-20T01:53:38;11.33;;;9.07;;
20441;SDS011;10380;52.102;20.614;2023-12-20T01:56:07;12.77;;;9.27;;
20441;SDS011;10380;52.102;20.614;2023-12-20T01:58:35;11.93;;;8.83;;
20441;SDS011;10380;52.102;20.614;2023-12-20T02:01:10;13.47;;;9.77;;
20441;SDS011;10380;52.102;20.614;2023-12-20T02:03:38;12.80;;;9.97;;
20441;SDS011;10380;52.102;20.614;2023-12-20T02:06:08;17.10;;;10.77;;
20441;SDS011;10380;52.102;20.614;2023-12-20T02:08:36;12.63;;;9.43;;
20441;SDS011;10380;52.102;20.614;2023-12-20T02:11:03;12.43;;;9.17;;
20441;SDS011;10380;52.102;20.614;2023-12-20T02:13:31;14.33;;;10.23;;
20441;SDS011;10380;52.102;20.614;2023-12-20T02:15:59;12.33;;;8.73;;
20441;SDS011;10380;52.102;20.614;2023-12-20T02:18:27;14.73;;;10.60;;
20441;SDS011;10380;52.102;20.614;2023-12-20T02:20:54;15.77;;;9.63;;
20441;SDS011;10380;52.102;20.614;2023-12-20T02:23:22;12.83;;;8.87;;
20441;SDS011;10380;52.102;20.614;2023-12-20T02:25:49;14.00;;;9.67;;
20441;SDS011;10380;52.102;20.614;2023-12-20T02:28:17;13.20;;;9.33;;
20441;SDS011;10380;52.102;20.614;2023-12-20T02:30:44;12.07;;;8.87;;
20441;SDS011;10380;52.102;20.614;2023-12-20T02:33:11;11.67;;;8.83;;
20441;SDS011;10380;52.102;20.614;2023-12-20T02:35:40;12.23;;;8.57;;
20441;SDS011;10380;52.102;20.614;2023-12-20T02:38:07;11.50;;;7.77;;
20441;SDS011;10380;52.102;20.614;2023-12-20T02:40:34;11.27;;;8.17;;
20441;SDS011;10380;52.102;20.614;2023-12-20T02:43:01;10.17;;;7.77;;
20441;SDS011;10380;52.102;20.614;2023-12-20T02:45:28;13.03;;;8.50;;
20441;SDS011;10380;52.102;20.614;2023-12-20T02:47:55;10.30;;;8.00;;
20441;SDS011;10380;52.102;20.614;2023-12-20T02:50:22;11.37;;;8.00;;
20441;SDS011;10380;52.102;20.614;2023-12-20T02:52:49;8.73;;;7.13;;
20441;SDS011;10380;52.102;20.614;2023-12-20T02:55:16;9.13;;;7.07;;
20441;SDS011;10380;52.102;20.614;2023-12-20T02:57:43;8.63;;;6.60;;
20441;SDS011;10380;52.102;20.614;2023-12-20T03:00:11;8.70;;;6.13;;
20441;SDS011;10380;52.102;20.614;2023-12-20T03:02:38;10.37;;;6.63;;
20441;SDS011;10380;52.102;20.614;2023-12-20T03:05:07;7.67;;;6.47;;
20441;SDS011;10380;52.102;20.614;2023-12-20T03:07:36;8.73;;;6.73;;
20441;SDS011;10380;52.102;20.614;2023-12-20T03:10:03;8.47;;;6.13;;
20441;SDS011;10380;52.102;20.614;2023-12-20T03:12:45;8.23;;;6.37;;
20441;SDS011;10380;52.102;20.614;2023-12-20T03:15:13;8.13;;;6.00;;
20441;SDS011;10380;52.102;20.614;2023-12-20T03:17:40;8.47;;;6.50;;
20441;SDS011;10380;52.102;20.614;2023-12-20T03:20:07;7.77;;;6.60;;
20441;SDS011;10380;52.102;20.614;2023-12-20T03:22:34;10.53;;;6.70;;
20441;SDS011;10380;52.102;20.614;2023-12-20T03:25:02;9.17;;;7.30;;
20441;SDS011;10380;52.102;20.614;2023-12-20T03:27:30;7.10;;;6.20;;
20441;SDS011;10380;52.102;20.614;2023-12-20T03:29:57;7.67;;;5.80;;
20441;SDS011;10380;52.102;20.614;2023-12-20T03:32:23;7.40;;;6.07;;
20441;SDS011;10380;52.102;20.614;2023-12-20T03:34:50;8.33;;;5.87;;
20441;SDS011;10380;52.102;20.614;2023-12-20T03:37:17;7.70;;;5.43;;
20441;SDS011;10380;52.102;20.614;2023-12-20T03:39:46;7.20;;;5.57;;
20441;SDS011;10380;52.102;20.614;2023-12-20T03:42:13;5.73;;;5.17;;
20441;SDS011;10380;52.102;20.614;2023-12-20T03:44:39;6.07;;;4.80;;
20441;SDS011;10380;52.102;20.614;2023-12-20T03:47:07;6.53;;;5.30;;
20441;SDS011;10380;52.102;20.614;2023-12-20T03:49:34;6.77;;;5.30;;
20441;SDS011;10380;52.102;20.614;2023-12-20T03:52:04;5.67;;;5.00;;
20441;SDS011;10380;52.102;20.614;2023-12-20T03:54:31;6.30;;;5.23;;
20441;SDS011;10380;52.102;20.614;2023-12-20T03:56:58;5.80;;;4.77;;
20441;SDS011;10380;52.102;20.614;2023-12-20T03:59:25;5.70;;;4.73;;
20441;SDS011;10380;52.102;20.614;2023-12-20T04:01:51;6.20;;;4.50;;
20441;SDS011;10380;52.102;20.614;2023-12-20T04:04:19;7.00;;;5.60;;
20441;SDS011;10380;52.102;20.614;2023-12-20T04:06:46;7.40;;;5.50;;
20441;SDS011;10380;52.102;20.614;2023-12-20T04:09:14;5.30;;;4.50;;
20441;SDS011;10380;52.102;20.614;2023-12-20T04:11:40;5.80;;;4.67;;
20441;SDS011;10380;52.102;20.614;2023-12-20T04:14:08;6.43;;;5.40;;
20441;SDS011;10380;52.102;20.614;2023-12-20T04:16:35;6.73;;;5.73;;
20441;SDS011;10380;52.102;20.614;2023-12-20T04:19:02;9.00;;;6.10;;
20441;SDS011;10380;52.102;20.614;2023-12-20T04:21:29;6.67;;;5.40;;
20441;SDS011;10380;52.102;20.614;2023-12-20T04:23:56;6.93;;;5.47;;
20441;SDS011;10380;52.102;20.614;2023-12-20T04:26:23;7.63;;;6.30;;
20441;SDS011;10380;52.102;20.614;2023-12-20T04:28:51;7.60;;;5.93;;
20441;SDS011;10380;52.102;20.614;2023-12-20T04:31:20;4.87;;;4.40;;
20441;SDS011;10380;52.102;20.614;2023-12-20T04:33:47;5.43;;;4.73;;
20441;SDS011;10380;52.102;20.614;2023-12-20T04:36:14;7.40;;;5.27;;
20441;SDS011;10380;52.102;20.614;2023-12-20T04:38:41;6.10;;;5.50;;
20441;SDS011;10380;52.102;20.614;2023-12-20T04:41:08;6.07;;;5.43;;
20441;SDS011;10380;52.102;20.614;2023-12-20T04:43:35;6.80;;;5.93;;
20441;SDS011;10380;52.102;20.614;2023-12-20T04:46:02;6.47;;;5.83;;
20441;SDS011;10380;52.102;20.614;2023-12-20T04:48:29;6.47;;;5.77;;
20441;SDS011;10380;52.102;20.614;2023-12-20T04:50:56;8.60;;;5.43;;
20441;SDS011;10380;52.102;20.614;2023-12-20T04:53:23;6.97;;;5.87;;
20441;SDS011;10380;52.102;20.614;2023-12-20T04:55:50;7.00;;;5.60;;
20441;SDS011;10380;52.102;20.614;2023-12-20T04:58:17;5.93;;;5.27;;
20441;SDS011;10380;52.102;20.614;2023-12-20T05:00:44;7.00;;;5.97;;
20441;SDS011;10380;52.102;20.614;2023-12-20T05:03:11;6.97;;;5.17;;
20441;SDS011;10380;52.102;20.614;2023-12-20T05:05:38;6.40;;;5.60;;
20441;SDS011;10380;52.102;20.614;2023-12-20T05:08:05;5.43;;;4.13;;
20441;SDS011;10380;52.102;20.614;2023-12-20T05:10:33;4.97;;;4.27;;
20441;SDS011;10380;52.102;20.614;2023-12-20T05:13:00;6.50;;;5.57;;
20441;SDS011;10380;52.102;20.614;2023-12-20T05:15:27;5.57;;;4.93;;
20441;SDS011;10380;52.102;20.614;2023-12-20T05:17:55;5.83;;;4.70;;
20441;SDS011;10380;52.102;20.614;2023-12-20T05:20:22;6.17;;;4.63;;
20441;SDS011;10380;52.102;20.614;2023-12-20T05:22:49;5.37;;;4.80;;
20441;SDS011;10380;52.102;20.614;2023-12-20T05:25:16;5.20;;;4.70;;
20441;SDS011;10380;52.102;20.614;2023-12-20T05:27:43;5.50;;;4.73;;
20441;SDS011;10380;52.102;20.614;2023-12-20T05:30:11;6.87;;;5.87;;
20441;SDS011;10380;52.102;20.614;2023-12-20T05:32:38;6.37;;;5.53;;
20441;SDS011;10380;52.102;20.614;2023-12-20T05:35:05;8.33;;;5.23;;
20441;SDS011;10380;52.102;20.614;2023-12-20T05:37:32;7.50;;;6.13;;
20441;SDS011;10380;52.102;20.614;2023-12-20T05:39:59;9.03;;;5.97;;
20441;SDS011;10380;52.102;20.614;2023-12-20T05:42:26;8.43;;;6.20;;
20441;SDS011;10380;52.102;20.614;2023-12-20T05:44:52;7.23;;;6.43;;
20441;SDS011;10380;52.102;20.614;2023-12-20T05:47:22;7.57;;;6.53;;
20441;SDS011;10380;52.102;20.614;2023-12-20T05:49:49;9.10;;;6.83;;
20441;SDS011;10380;52.102;20.614;2023-12-20T05:52:22;11.17;;;7.93;;
20441;SDS011;10380;52.102;20.614;2023-12-20T05:54:49;8.73;;;7.57;;
20441;SDS011;10380;52.102;20.614;2023-12-20T05:57:16;8.67;;;7.60;;
20441;SDS011;10380;52.102;20.614;2023-12-20T05:59:43;9.13;;;8.17;;
20441;SDS011;10380;52.102;20.614;2023-12-20T06:02:10;9.27;;;7.23;;
20441;SDS011;10380;52.102;20.614;2023-12-20T06:04:37;11.53;;;8.17;;
20441;SDS011;10380;52.102;20.614;2023-12-20T06:07:08;9.30;;;7.53;;
20441;SDS011;10380;52.102;20.614;2023-12-20T06:09:35;9.00;;;8.10;;
20441;SDS011;10380;52.102;20.614;2023-12-20T06:12:02;7.97;;;7.17;;
20441;SDS011;10380;52.102;20.614;2023-12-20T06:14:29;8.87;;;7.97;;
20441;SDS011;10380;52.102;20.614;2023-12-20T06:16:57;10.00;;;8.30;;
20441;SDS011;10380;52.102;20.614;2023-12-20T06:19:24;9.37;;;7.30;;
20441;SDS011;10380;52.102;20.614;2023-12-20T06:21:51;10.87;;;8.53;;
20441;SDS011;10380;52.102;20.614;2023-12-20T06:24:18;7.57;;;6.40;;
20441;SDS011;10380;52.102;20.614;2023-12-20T06:26:45;9.83;;;7.17;;
20441;SDS011;10380;52.102;20.614;2023-12-20T06:29:11;8.50;;;7.60;;
20441;SDS011;10380;52.102;20.614;2023-12-20T06:31:38;12.47;;;8.73;;
20441;SDS011;10380;52.102;20.614;2023-12-20T06:34:05;9.30;;;8.30;;
20441;SDS011;10380;52.102;20.614;2023-12-20T06:36:32;11.33;;;9.07;;
20441;SDS011;10380;52.102;20.614;2023-12-20T06:38:59;8.73;;;7.83;;
20441;SDS011;10380;52.102;20.614;2023-12-20T06:41:26;9.87;;;7.53;;
20441;SDS011;10380;52.102;20.614;2023-12-20T06:43:53;9.83;;;7.63;;
20441;SDS011;10380;52.102;20.614;2023-12-20T06:46:19;11.03;;;8.17;;
20441;SDS011;10380;52.102;20.614;2023-12-20T06:48:46;13.27;;;8.53;;
20441;SDS011;10380;52.102;20.614;2023-12-20T06:51:14;11.83;;;10.57;;
20441;SDS011;10380;52.102;20.614;2023-12-20T06:53:42;11.20;;;8.63;;
20441;SDS011;10380;52.102;20.614;2023-12-20T06:56:10;10.17;;;7.73;;
20441;SDS011;10380;52.102;20.614;2023-12-20T06:58:45;10.37;;;8.20;;
20441;SDS011;10380;52.102;20.614;2023-12-20T07:01:12;10.67;;;7.47;;
20441;SDS011;10380;52.102;20.614;2023-12-20T07:03:40;8.37;;;6.77;;
20441;SDS011;10380;52.102;20.614;2023-12-20T07:06:08;9.33;;;7.50;;
20441;SDS011;10380;52.102;20.614;2023-12-20T07:08:35;9.43;;;8.17;;
20441;SDS011;10380;52.102;20.614;2023-12-20T07:11:01;10.70;;;7.90;;
20441;SDS011;10380;52.102;20.614;2023-12-20T07:13:29;10.17;;;7.17;;
20441;SDS011;10380;52.102;20.614;2023-12-20T07:15:56;9.70;;;7.93;;
20441;SDS011;10380;52.102;20.614;2023-12-20T07:18:23;9.73;;;8.00;;
20441;SDS011;10380;52.102;20.614;2023-12-20T07:20:50;7.90;;;7.03;;
20441;SDS011;10380;52.102;20.614;2023-12-20T07:23:17;10.97;;;7.97;;
20441;SDS011;10380;52.102;20.614;2023-12-20T07:25:46;9.10;;;6.83;;
20441;SDS011;10380;52.102;20.614;2023-12-20T07:28:13;9.13;;;7.17;;
20441;SDS011;10380;52.102;20.614;2023-12-20T07:30:40;8.83;;;7.23;;
20441;SDS011;10380;52.102;20.614;2023-12-20T07:33:07;8.57;;;7.00;;
20441;SDS011;10380;52.102;20.614;2023-12-20T07:35:36;8.43;;;7.40;;
20441;SDS011;10380;52.102;20.614;2023-12-20T07:38:03;10.33;;;6.73;;
20441;SDS011;10380;52.102;20.614;2023-12-20T07:40:30;8.47;;;7.03;;
20441;SDS011;10380;52.102;20.614;2023-12-20T07:42:57;8.87;;;7.57;;
20441;SDS011;10380;52.102;20.614;2023-12-20T07:45:24;10.53;;;8.37;;
20441;SDS011;10380;52.102;20.614;2023-12-20T07:47:51;9.37;;;7.77;;
20441;SDS011;10380;52.102;20.614;2023-12-20T07:50:18;8.60;;;7.57;;
20441;SDS011;10380;52.102;20.614;2023-12-20T07:52:45;9.23;;;7.43;;
20441;SDS011;10380;52.102;20.614;2023-12-20T07:55:12;8.73;;;7.60;;
20441;SDS011;10380;52.102;20.614;2023-12-20T07:57:39;10.83;;;8.03;;
20441;SDS011;10380;52.102;20.614;2023-12-20T08:00:06;10.23;;;7.43;;
20441;SDS011;10380;52.102;20.614;2023-12-20T08:02:33;9.20;;;7.80;;
20441;SDS011;10380;52.102;20.614;2023-12-20T08:05:00;9.00;;;7.30;;
20441;SDS011;10380;52.102;20.614;2023-12-20T08:07:27;8.07;;;6.63;;
20441;SDS011;10380;52.102;20.614;2023-12-20T08:09:54;9.43;;;7.37;;
20441;SDS011;10380;52.102;20.614;2023-12-20T08:12:23;8.90;;;7.73;;
20441;SDS011;10380;52.102;20.614;2023-12-20T08:14:52;10.23;;;7.40;;
20441;SDS011;10380;52.102;20.614;2023-12-20T08:17:19;8.60;;;6.67;;
20441;SDS011;10380;52.102;20.614;2023-12-20T08:19:46;9.20;;;7.63;;
20441;SDS011;10380;52.102;20.614;2023-12-20T08:22:13;11.20;;;7.87;;
20441;SDS011;10380;52.102;20.614;2023-12-20T08:24:40;9.07;;;7.47;;
20441;SDS011;10380;52.102;20.614;2023-12-20T08:27:07;10.00;;;7.67;;
20441;SDS011;10380;52.102;20.614;2023-12-20T08:29:35;9.53;;;7.83;;
20441;SDS011;10380;52.102;20.614;2023-12-20T08:32:02;10.37;;;8.23;;
20441;SDS011;10380;52.102;20.614;2023-12-20T08:34:30;9.10;;;7.23;;
20441;SDS011;10380;52.102;20.614;2023-12-20T08:36:57;10.87;;;6.87;;
20441;SDS011;10380;52.102;20.614;2023-12-20T08:39:24;7.90;;;6.77;;
20441;SDS011;10380;52.102;20.614;2023-12-20T08:41:50;9.47;;;7.27;;
20441;SDS011;10380;52.102;20.614;2023-12-20T08:44:17;12.17;;;8.73;;
20441;SDS011;10380;52.102;20.614;2023-12-20T08:46:44;13.43;;;9.90;;
20441;SDS011;10380;52.102;20.614;2023-12-20T08:49:11;12.07;;;8.73;;
20441;SDS011;10380;52.102;20.614;2023-12-20T08:51:38;16.30;;;9.63;;
20441;SDS011;10380;52.102;20.614;2023-12-20T08:54:07;11.67;;;8.40;;
20441;SDS011;10380;52.102;20.614;2023-12-20T08:56:34;11.13;;;8.30;;
20441;SDS011;10380;52.102;20.614;2023-12-20T08:59:01;16.17;;;9.63;;
20441;SDS011;10380;52.102;20.614;2023-12-20T09:01:30;12.13;;;9.07;;
20441;SDS011;10380;52.102;20.614;2023-12-20T09:03:57;21.43;;;14.37;;
20441;SDS011;10380;52.102;20.614;2023-12-20T09:06:26;20.00;;;14.57;;
20441;SDS011;10380;52.102;20.614;2023-12-20T09:08:52;18.33;;;12.20;;
20441;SDS011;10380;52.102;20.614;2023-12-20T09:11:19;11.87;;;9.30;;
20441;SDS011;10380;52.102;20.614;2023-12-20T09:13:46;9.67;;;7.47;;
20441;SDS011;10380;52.102;20.614;2023-12-20T09:16:13;8.60;;;6.77;;
20441;SDS011;10380;52.102;20.614;2023-12-20T09:18:42;7.77;;;6.30;;
20441;SDS011;10380;52.102;20.614;2023-12-20T09:21:09;11.17;;;8.03;;
20441;SDS011;10380;52.102;20.614;2023-12-20T09:23:36;12.20;;;8.40;;
20441;SDS011;10380;52.102;20.614;2023-12-20T09:26:03;11.13;;;8.50;;
20441;SDS011;10380;52.102;20.614;2023-12-20T09:28:30;9.00;;;8.07;;
20441;SDS011;10380;52.102;20.614;2023-12-20T09:31:03;11.87;;;8.97;;
20441;SDS011;10380;52.102;20.614;2023-12-20T09:33:31;9.83;;;7.63;;
20441;SDS011;10380;52.102;20.614;2023-12-20T09:35:58;11.60;;;8.83;;
20441;SDS011;10380;52.102;20.614;2023-12-20T09:38:25;11.67;;;8.33;;
20441;SDS011;10380;52.102;20.614;2023-12-20T09:40:52;8.90;;;7.70;;
20441;SDS011;10380;52.102;20.614;2023-12-20T09:43:21;8.97;;;6.67;;
20441;SDS011;10380;52.102;20.614;2023-12-20T09:45:52;9.83;;;7.23;;
20441;SDS011;10380;52.102;20.614;2023-12-20T09:48:20;11.20;;;8.03;;
20441;SDS011;10380;52.102;20.614;2023-12-20T09:50:48;11.13;;;8.37;;
20441;SDS011;10380;52.102;20.614;2023-12-20T09:53:19;11.03;;;8.30;;
20441;SDS011;10380;52.102;20.614;2023-12-20T09:55:47;10.17;;;8.33;;
20441;SDS011;10380;52.102;20.614;2023-12-20T09:58:15;9.50;;;7.60;;
20441;SDS011;10380;52.102;20.614;2023-12-20T10:00:42;9.97;;;7.27;;
20441;SDS011;10380;52.102;20.614;2023-12-20T10:03:09;8.33;;;7.50;;
20441;SDS011;10380;52.102;20.614;2023-12-20T10:05:37;9.10;;;7.53;;
20441;SDS011;10380;52.102;20.614;2023-12-20T10:08:09;9.77;;;8.13;;
20441;SDS011;10380;52.102;20.614;2023-12-20T10:10:37;10.77;;;8.57;;
20441;SDS011;10380;52.102;20.614;2023-12-20T10:13:13;9.77;;;8.13;;
20441;SDS011;10380;52.102;20.614;2023-12-20T10:15:42;8.93;;;7.07;;
20441;SDS011;10380;52.102;20.614;2023-12-20T10:18:09;9.57;;;7.83;;
20441;SDS011;10380;52.102;20.614;2023-12-20T10:20:37;8.77;;;7.37;;
20441;SDS011;10380;52.102;20.614;2023-12-20T10:23:06;11.80;;;7.73;;
20441;SDS011;10380;52.102;20.614;2023-12-20T10:25:33;10.40;;;8.30;;
20441;SDS011;10380;52.102;20.614;2023-12-20T10:28:14;9.10;;;7.30;;
20441;SDS011;10380;52.102;20.614;2023-12-20T10:30:45;8.63;;;7.20;;
20441;SDS011;10380;52.102;20.614;2023-12-20T10:33:12;9.80;;;8.20;;
20441;SDS011;10380;52.102;20.614;2023-12-20T10:35:40;11.63;;;9.27;;
20441;SDS011;10380;52.102;20.614;2023-12-20T10:38:12;10.40;;;8.40;;
20441;SDS011;10380;52.102;20.614;2023-12-20T10:40:42;11.50;;;8.63;;
20441;SDS011;10380;52.102;20.614;2023-12-20T10:43:11;10.97;;;8.03;;
20441;SDS011;10380;52.102;20.614;2023-12-20T10:45:40;12.07;;;9.17;;
20441;SDS011;10380;52.102;20.614;2023-12-20T10:48:09;15.70;;;11.30;;
20441;SDS011;10380;52.102;20.614;2023-12-20T10:50:40;11.80;;;9.00;;
20441;SDS011;10380;52.102;20.614;2023-12-20T10:53:07;13.50;;;11.17;;
20441;SDS011;10380;52.102;20.614;2023-12-20T10:55:34;11.83;;;9.27;;
20441;SDS011;10380;52.102;20.614;2023-12-20T10:58:02;12.80;;;8.90;;
20441;SDS011;10380;52.102;20.614;2023-12-20T11:00:37;12.17;;;10.37;;
20441;SDS011;10380;52.102;20.614;2023-12-20T11:03:08;13.13;;;9.13;;
20441;SDS011;10380;52.102;20.614;2023-12-20T11:05:45;11.63;;;9.17;;
20441;SDS011;10380;52.102;20.614;2023-12-20T11:08:22;8.97;;;7.37;;
20441;SDS011;10380;52.102;20.614;2023-12-20T11:11:08;9.83;;;7.60;;
20441;SDS011;10380;52.102;20.614;2023-12-20T11:14:03;11.30;;;7.77;;
20441;SDS011;10380;52.102;20.614;2023-12-20T11:16:38;7.40;;;6.00;;
20441;SDS011;10380;52.102;20.614;2023-12-20T11:19:17;9.30;;;6.93;;
20441;SDS011;10380;52.102;20.614;2023-12-20T11:21:45;7.47;;;6.37;;
20441;SDS011;10380;52.102;20.614;2023-12-20T11:24:13;7.83;;;6.63;;
20441;SDS011;10380;52.102;20.614;2023-12-20T11:26:46;9.67;;;7.53;;
20441;SDS011;10380;52.102;20.614;2023-12-20T11:29:31;7.27;;;6.30;;
20441;SDS011;10380;52.102;20.614;2023-12-20T11:32:02;7.13;;;5.50;;
20441;SDS011;10380;52.102;20.614;2023-12-20T11:34:33;6.57;;;5.93;;
20441;SDS011;10380;52.102;20.614;2023-12-20T11:37:04;7.30;;;5.57;;
20441;SDS011;10380;52.102;20.614;2023-12-20T11:39:31;7.63;;;6.00;;
20441;SDS011;10380;52.102;20.614;2023-12-20T11:42:03;7.80;;;6.23;;
20441;SDS011;10380;52.102;20.614;2023-12-20T11:44:31;8.93;;;5.27;;
20441;SDS011;10380;52.102;20.614;2023-12-20T11:46:58;8.10;;;6.40;;
20441;SDS011;10380;52.102;20.614;2023-12-20T11:49:25;8.00;;;5.67;;
20441;SDS011;10380;52.102;20.614;2023-12-20T11:51:52;7.33;;;5.63;;
20441;SDS011;10380;52.102;20.614;2023-12-20T11:54:19;5.97;;;4.73;;
20441;SDS011;10380;52.102;20.614;2023-12-20T11:56:46;5.23;;;4.30;;
20441;SDS011;10380;52.102;20.614;2023-12-20T11:59:14;4.80;;;4.30;;
20441;SDS011;10380;52.102;20.614;2023-12-20T12:01:49;5.17;;;4.30;;
20441;SDS011;10380;52.102;20.614;2023-12-20T12:04:18;5.60;;;4.17;;
20441;SDS011;10380;52.102;20.614;2023-12-20T12:06:45;4.70;;;3.70;;
20441;SDS011;10380;52.102;20.614;2023-12-20T12:09:12;5.90;;;4.30;;
20441;SDS011;10380;52.102;20.614;2023-12-20T12:11:39;6.40;;;4.67;;
20441;SDS011;10380;52.102;20.614;2023-12-20T12:14:06;6.17;;;5.00;;
20441;SDS011;10380;52.102;20.614;2023-12-20T12:16:34;6.03;;;4.70;;
20441;SDS011;10380;52.102;20.614;2023-12-20T12:19:01;9.40;;;5.37;;
20441;SDS011;10380;52.102;20.614;2023-12-20T12:21:28;6.20;;;4.97;;
20441;SDS011;10380;52.102;20.614;2023-12-20T12:24:08;7.57;;;5.53;;
20441;SDS011;10380;52.102;20.614;2023-12-20T12:26:37;6.63;;;5.57;;
20441;SDS011;10380;52.102;20.614;2023-12-20T12:29:06;6.87;;;5.67;;
20441;SDS011;10380;52.102;20.614;2023-12-20T12:31:34;9.00;;;5.87;;
20441;SDS011;10380;52.102;20.614;2023-12-20T12:34:02;8.47;;;5.90;;
20441;SDS011;10380;52.102;20.614;2023-12-20T12:36:29;7.43;;;4.90;;
20441;SDS011;10380;52.102;20.614;2023-12-20T12:38:57;8.03;;;5.47;;
20441;SDS011;10380;52.102;20.614;2023-12-20T12:41:24;8.47;;;6.20;;
20441;SDS011;10380;52.102;20.614;2023-12-20T12:43:51;7.97;;;5.33;;
20441;SDS011;10380;52.102;20.614;2023-12-20T12:46:21;7.13;;;5.30;;
20441;SDS011;10380;52.102;20.614;2023-12-20T12:48:48;8.37;;;5.27;;
20441;SDS011;10380;52.102;20.614;2023-12-20T12:51:16;6.33;;;5.60;;
20441;SDS011;10380;52.102;20.614;2023-12-20T12:53:43;6.97;;;5.93;;
20441;SDS011;10380;52.102;20.614;2023-12-20T12:56:10;9.53;;;6.03;;
20441;SDS011;10380;52.102;20.614;2023-12-20T12:58:40;7.93;;;6.50;;
20441;SDS011;10380;52.102;20.614;2023-12-20T13:01:07;8.00;;;5.93;;
20441;SDS011;10380;52.102;20.614;2023-12-20T13:03:34;7.23;;;5.97;;
20441;SDS011;10380;52.102;20.614;2023-12-20T13:06:02;9.20;;;5.00;;
20441;SDS011;10380;52.102;20.614;2023-12-20T13:08:29;7.63;;;5.37;;
20441;SDS011;10380;52.102;20.614;2023-12-20T13:10:56;7.97;;;5.30;;
20441;SDS011;10380;52.102;20.614;2023-12-20T13:13:27;7.07;;;5.57;;
20441;SDS011;10380;52.102;20.614;2023-12-20T13:15:55;7.93;;;5.63;;
20441;SDS011;10380;52.102;20.614;2023-12-20T13:18:22;9.67;;;6.10;;
20441;SDS011;10380;52.102;20.614;2023-12-20T13:20:49;10.97;;;7.50;;
20441;SDS011;10380;52.102;20.614;2023-12-20T13:23:17;12.40;;;8.27;;
20441;SDS011;10380;52.102;20.614;2023-12-20T13:25:47;10.83;;;8.40;;
20441;SDS011;10380;52.102;20.614;2023-12-20T13:28:14;10.10;;;7.17;;
20441;SDS011;10380;52.102;20.614;2023-12-20T13:30:41;13.07;;;8.63;;
20441;SDS011;10380;52.102;20.614;2023-12-20T13:33:08;10.17;;;7.20;;
20441;SDS011;10380;52.102;20.614;2023-12-20T13:35:35;10.27;;;6.93;;
20441;SDS011;10380;52.102;20.614;2023-12-20T13:38:02;8.40;;;6.10;;
20441;SDS011;10380;52.102;20.614;2023-12-20T13:40:29;11.90;;;7.53;;
20441;SDS011;10380;52.102;20.614;2023-12-20T13:42:57;11.53;;;8.03;;
20441;SDS011;10380;52.102;20.614;2023-12-20T13:45:24;10.97;;;7.77;;
20441;SDS011;10380;52.102;20.614;2023-12-20T13:47:51;10.33;;;7.93;;
20441;SDS011;10380;52.102;20.614;2023-12-20T13:50:18;7.13;;;5.97;;
20441;SDS011;10380;52.102;20.614;2023-12-20T13:52:45;8.97;;;5.47;;
20441;SDS011;10380;52.102;20.614;2023-12-20T13:55:13;7.97;;;5.63;;
20441;SDS011;10380;52.102;20.614;2023-12-20T13:57:41;10.07;;;5.50;;
20441;SDS011;10380;52.102;20.614;2023-12-20T14:00:20;6.07;;;5.47;;
20441;SDS011;10380;52.102;20.614;2023-12-20T14:02:48;8.97;;;5.50;;
20441;SDS011;10380;52.102;20.614;2023-12-20T14:05:16;7.73;;;4.83;;
20441;SDS011;10380;52.102;20.614;2023-12-20T14:07:49;7.73;;;4.63;;
20441;SDS011;10380;52.102;20.614;2023-12-20T14:10:16;7.97;;;4.50;;
20441;SDS011;10380;52.102;20.614;2023-12-20T14:12:43;10.13;;;5.03;;
20441;SDS011;10380;52.102;20.614;2023-12-20T14:15:11;7.57;;;4.93;;
20441;SDS011;10380;52.102;20.614;2023-12-20T14:17:40;9.70;;;5.83;;
20441;SDS011;10380;52.102;20.614;2023-12-20T14:20:09;7.60;;;5.10;;
20441;SDS011;10380;52.102;20.614;2023-12-20T14:22:38;9.23;;;5.93;;
20441;SDS011;10380;52.102;20.614;2023-12-20T14:25:10;8.73;;;6.10;;
20441;SDS011;10380;52.102;20.614;2023-12-20T14:27:39;10.37;;;6.13;;
20441;SDS011;10380;52.102;20.614;2023-12-20T14:30:07;8.43;;;5.53;;
20441;SDS011;10380;52.102;20.614;2023-12-20T14:32:34;9.87;;;5.17;;
20441;SDS011;10380;52.102;20.614;2023-12-20T14:35:08;5.53;;;4.90;;
20441;SDS011;10380;52.102;20.614;2023-12-20T14:37:36;9.57;;;6.53;;
20441;SDS011;10380;52.102;20.614;2023-12-20T14:40:07;8.93;;;4.87;;